createdAt,value
2017-05-26T00:00:11.156Z,66.65
2017-05-26T00:00:37.272Z,66.46
2017-05-26T00:01:03.378Z,65.97
2017-05-26T00:01:29.470Z,66.2
2017-05-26T00:01:55.582Z,66.27
2017-05-26T00:02:21.680Z,66.39
2017-05-26T00:02:47.785Z,66.07
2017-05-26T00:03:13.917Z,66.2
2017-05-26T00:03:40.044Z,66.1
2017-05-26T00:04:06.135Z,66.46
2017-05-26T00:04:32.240Z,66.55
2017-05-26T00:04:58.345Z,66.84
2017-05-26T00:05:24.435Z,66.78
2017-05-26T00:05:50.537Z,66.65
2017-05-26T00:06:16.671Z,66.78
2017-05-26T00:06:42.766Z,66.84
2017-05-26T00:07:08.898Z,66.94
2017-05-26T00:07:34.991Z,66.74
2017-05-26T00:08:01.118Z,66.94
2017-05-26T00:08:27.226Z,66.74
2017-05-26T00:08:53.368Z,66.74
2017-05-26T00:09:19.492Z,66.65
2017-05-26T00:09:45.654Z,66.94
2017-05-26T00:10:11.819Z,66.74
2017-05-26T00:10:37.918Z,66.74
2017-05-26T00:11:04.056Z,66.74
2017-05-26T00:11:30.201Z,67.03
2017-05-26T00:11:56.379Z,67.42
2017-05-26T00:12:22.439Z,67.32
2017-05-26T00:12:48.588Z,67.03
2017-05-26T00:13:14.808Z,67.61
2017-05-26T00:13:40.980Z,67.13
2017-05-26T00:14:07.079Z,67.13
2017-05-26T00:14:33.266Z,67.22
2017-05-26T00:14:59.437Z,67.22
2017-05-26T00:15:25.531Z,67.13
2017-05-26T00:15:51.672Z,67.03
2017-05-26T00:16:17.769Z,67.32
2017-05-26T00:16:43.860Z,67.22
2017-05-26T00:17:09.967Z,67.42
2017-05-26T00:17:36.070Z,67.03
2017-05-26T00:18:02.196Z,67.03
2017-05-26T00:18:28.348Z,66.74
2017-05-26T00:18:54.465Z,67.03
2017-05-26T00:19:20.629Z,67.13
2017-05-26T00:19:46.754Z,67.42
2017-05-26T00:20:12.844Z,67.22
2017-05-26T00:20:38.982Z,67.03
2017-05-26T00:21:05.112Z,67.32
2017-05-26T00:21:31.200Z,67.51
2017-05-26T00:21:57.306Z,66.94
2017-05-26T00:22:23.417Z,67.22
2017-05-26T00:22:49.523Z,67.32
2017-05-26T00:23:15.622Z,67.61
2017-05-26T00:23:41.717Z,67.32
2017-05-26T00:24:07.823Z,67.51
2017-05-26T00:24:33.954Z,67.32
2017-05-26T00:25:00.096Z,67.61
2017-05-26T00:25:26.225Z,67.8
2017-05-26T00:25:52.333Z,67.99
2017-05-26T00:26:18.422Z,67.9
2017-05-26T00:26:44.549Z,67.8
2017-05-26T00:27:10.683Z,67.8
2017-05-26T00:27:36.828Z,67.8
2017-05-26T00:28:02.975Z,67.96
2017-05-26T00:28:29.109Z,67.8
2017-05-26T00:28:55.255Z,67.77
2017-05-26T00:29:21.348Z,67.71
2017-05-26T00:29:47.535Z,67.86
2017-05-26T00:30:13.663Z,67.86
2017-05-26T00:30:39.780Z,67.9
2017-05-26T00:31:05.886Z,67.96
2017-05-26T00:31:31.990Z,67.68
2017-05-26T00:31:58.081Z,67.96
2017-05-26T00:32:24.211Z,67.71
2017-05-26T00:32:50.346Z,67.58
2017-05-26T00:33:16.456Z,67.77
2017-05-26T00:33:42.560Z,67.86
2017-05-26T00:34:08.696Z,67.58
2017-05-26T00:34:34.786Z,67.96
2017-05-26T00:35:00.919Z,67.58
2017-05-26T00:35:27.010Z,67.96
2017-05-26T00:35:53.117Z,67.86
2017-05-26T00:36:19.250Z,68.25
2017-05-26T00:36:45.365Z,67.96
2017-05-26T00:37:11.490Z,67.96
2017-05-26T00:37:37.599Z,67.86
2017-05-26T00:38:03.770Z,67.58
2017-05-26T00:38:29.916Z,67.68
2017-05-26T00:38:56.052Z,67.68
2017-05-26T00:39:22.171Z,68.35
2017-05-26T00:39:48.311Z,67.96
2017-05-26T00:40:14.442Z,68.54
2017-05-26T00:40:40.568Z,68.54
2017-05-26T00:41:06.676Z,68.54
2017-05-26T00:41:32.766Z,68.63
2017-05-26T00:41:58.863Z,69.02
2017-05-26T00:42:24.999Z,68.73
2017-05-26T00:42:51.199Z,69.02
2017-05-26T00:43:17.341Z,69.02
2017-05-26T00:43:43.507Z,68.54
2017-05-26T00:44:09.634Z,68.54
2017-05-26T00:44:35.777Z,68.63
2017-05-26T00:45:01.939Z,68.83
2017-05-26T00:45:28.064Z,68.73
2017-05-26T00:45:54.190Z,68.83
2017-05-26T00:46:20.313Z,68.73
2017-05-26T00:46:46.429Z,68.83
2017-05-26T00:47:12.542Z,68.54
2017-05-26T00:47:38.639Z,68.83
2017-05-26T00:48:04.779Z,68.73
2017-05-26T00:48:30.884Z,68.92
2017-05-26T00:48:56.984Z,69.5
2017-05-26T00:49:23.076Z,69.12
2017-05-26T00:49:49.234Z,69.4
2017-05-26T00:50:15.370Z,69.12
2017-05-26T00:50:41.490Z,69.21
2017-05-26T00:51:07.635Z,69.31
2017-05-26T00:51:33.729Z,69.31
2017-05-26T00:51:59.863Z,69.02
2017-05-26T00:52:25.992Z,69.21
2017-05-26T00:52:52.135Z,69.4
2017-05-26T00:53:18.264Z,69.4
2017-05-26T00:53:44.456Z,69.31
2017-05-26T00:54:10.543Z,69.31
2017-05-26T00:54:36.643Z,69.4
2017-05-26T00:55:02.806Z,69.02
2017-05-26T00:55:28.921Z,69.27
2017-05-26T00:55:55.069Z,69.08
2017-05-26T00:56:21.176Z,69.46
2017-05-26T00:56:47.322Z,69.5
2017-05-26T00:57:13.429Z,69.85
2017-05-26T00:57:39.597Z,69.46
2017-05-26T00:58:05.748Z,69.37
2017-05-26T00:58:31.884Z,69.66
2017-05-26T00:58:58.026Z,69.02
2017-05-26T00:59:24.170Z,68.92
2017-05-26T00:59:50.335Z,68.92
2017-05-26T01:00:16.430Z,69.69
2017-05-26T01:00:42.545Z,69.79
2017-05-26T01:01:08.656Z,69.85
2017-05-26T01:01:34.754Z,69.37
2017-05-26T01:02:00.846Z,69.66
2017-05-26T01:02:26.955Z,69.4
2017-05-26T01:02:53.051Z,69.46
2017-05-26T01:03:19.185Z,69.75
2017-05-26T01:03:45.280Z,69.27
2017-05-26T01:04:11.448Z,69.37
2017-05-26T01:04:37.610Z,69.37
2017-05-26T01:05:03.735Z,69.69
2017-05-26T01:05:29.829Z,69.66
2017-05-26T01:05:55.944Z,69.5
2017-05-26T01:06:22.064Z,69.46
2017-05-26T01:06:48.156Z,69.75
2017-05-26T01:07:14.286Z,69.12
2017-05-26T01:07:40.449Z,69.37
2017-05-26T01:08:06.569Z,69.89
2017-05-26T01:08:32.745Z,69.56
2017-05-26T01:08:58.837Z,69.85
2017-05-26T01:09:24.993Z,69.37
2017-05-26T01:09:51.092Z,69.69
2017-05-26T01:10:17.181Z,69.79
2017-05-26T01:10:43.316Z,69.66
2017-05-26T01:11:09.479Z,69.66
2017-05-26T01:11:35.593Z,69.66
2017-05-26T01:12:01.694Z,70.04
2017-05-26T01:12:27.827Z,70.14
2017-05-26T01:12:53.944Z,70.04
2017-05-26T01:13:20.067Z,70.33
2017-05-26T01:13:46.234Z,70.62
2017-05-26T01:14:12.383Z,70.23
2017-05-26T01:14:38.474Z,69.95
2017-05-26T01:15:04.671Z,70.14
2017-05-26T01:15:30.850Z,70.04
2017-05-26T01:15:56.965Z,69.95
2017-05-26T01:16:23.074Z,70.04
2017-05-26T01:16:49.233Z,70.14
2017-05-26T01:17:15.326Z,70.33
2017-05-26T01:17:41.463Z,70.14
2017-05-26T01:18:07.597Z,69.85
2017-05-26T01:18:33.686Z,70.62
2017-05-26T01:18:59.837Z,70.14
2017-05-26T01:19:25.931Z,70.52
2017-05-26T01:19:52.089Z,69.95
2017-05-26T01:20:18.213Z,70.04
2017-05-26T01:20:44.330Z,70.23
2017-05-26T01:21:10.435Z,69.56
2017-05-26T01:21:36.570Z,70.23
2017-05-26T01:22:02.682Z,70.33
2017-05-26T01:22:28.808Z,70.14
2017-05-26T01:22:54.917Z,70.04
2017-05-26T01:23:21.060Z,70.52
2017-05-26T01:23:47.184Z,69.85
2017-05-26T01:24:13.346Z,69.75
2017-05-26T01:24:39.495Z,69.85
2017-05-26T01:25:05.630Z,70.04
2017-05-26T01:25:31.745Z,70.04
2017-05-26T01:25:57.870Z,70.04
2017-05-26T01:26:23.975Z,70.04
2017-05-26T01:26:50.069Z,69.75
2017-05-26T01:27:16.167Z,69.75
2017-05-26T01:27:42.304Z,70.04
2017-05-26T01:28:08.400Z,70.14
2017-05-26T01:28:34.516Z,70.23
2017-05-26T01:29:00.709Z,69.85
2017-05-26T01:29:26.804Z,69.66
2017-05-26T01:29:52.919Z,69.27
2017-05-26T01:30:19.052Z,69.27
2017-05-26T01:30:45.173Z,69.37
2017-05-26T01:31:11.282Z,69.75
2017-05-26T01:31:37.401Z,69.95
2017-05-26T01:32:03.519Z,69.75
2017-05-26T01:32:29.629Z,70.14
2017-05-26T01:32:55.754Z,70.62
2017-05-26T01:33:21.872Z,70.43
2017-05-26T01:33:47.979Z,70.23
2017-05-26T01:34:14.106Z,70.33
2017-05-26T01:34:40.197Z,70.33
2017-05-26T01:35:06.380Z,70.52
2017-05-26T01:35:32.514Z,70.33
2017-05-26T01:35:58.609Z,69.95
2017-05-26T01:36:24.735Z,70.33
2017-05-26T01:36:50.850Z,70.23
2017-05-26T01:37:17.011Z,70.14
2017-05-26T01:37:43.142Z,70.04
2017-05-26T01:38:09.284Z,70.43
2017-05-26T01:38:35.417Z,69.95
2017-05-26T01:39:01.607Z,70.14
2017-05-26T01:39:27.696Z,70.72
2017-05-26T01:39:53.820Z,70.23
2017-05-26T01:40:19.984Z,70.14
2017-05-26T01:40:46.074Z,69.75
2017-05-26T01:41:12.246Z,69.56
2017-05-26T01:41:38.344Z,70.52
2017-05-26T01:42:04.448Z,70.43
2017-05-26T01:42:30.610Z,70.23
2017-05-26T01:42:56.746Z,70.14
2017-05-26T01:43:22.874Z,70.14
2017-05-26T01:43:48.979Z,70.04
2017-05-26T01:44:15.070Z,70.62
2017-05-26T01:44:41.168Z,70.52
2017-05-26T01:45:07.333Z,70.52
2017-05-26T01:45:33.430Z,70.52
2017-05-26T01:45:59.522Z,70.43
2017-05-26T01:46:25.712Z,70.72
2017-05-26T01:46:51.866Z,70.62
2017-05-26T01:47:17.970Z,70.23
2017-05-26T01:47:44.062Z,70.33
2017-05-26T01:48:10.231Z,70.14
2017-05-26T01:48:36.395Z,70.14
2017-05-26T01:49:02.514Z,70.33
2017-05-26T01:49:28.604Z,70.23
2017-05-26T01:49:54.746Z,70.14
2017-05-26T01:50:20.895Z,70.33
2017-05-26T01:50:46.992Z,70.23
2017-05-26T01:51:13.092Z,70.33
2017-05-26T01:51:39.194Z,70.33
2017-05-26T01:52:05.311Z,70.23
2017-05-26T01:52:31.460Z,70.33
2017-05-26T01:52:57.550Z,70.14
2017-05-26T01:53:23.688Z,70.14
2017-05-26T01:53:49.843Z,70.14
2017-05-26T01:54:15.959Z,70.23
2017-05-26T01:54:42.121Z,70.43
2017-05-26T01:55:08.276Z,70.72
2017-05-26T01:55:34.415Z,70.62
2017-05-26T01:56:00.548Z,71.19
2017-05-26T01:56:26.655Z,70.33
2017-05-26T01:56:52.744Z,70.52
2017-05-26T01:57:18.895Z,70.23
2017-05-26T01:57:45.002Z,70.33
2017-05-26T01:58:11.093Z,70.81
2017-05-26T01:58:37.191Z,70.62
2017-05-26T01:59:03.325Z,70.33
2017-05-26T01:59:29.444Z,70.81
2017-05-26T01:59:55.585Z,71.19
2017-05-26T02:00:21.722Z,70.81
2017-05-26T02:00:47.868Z,70.81
2017-05-26T02:01:13.982Z,70.62
2017-05-26T02:01:40.088Z,71.1
2017-05-26T02:02:06.275Z,70.9
2017-05-26T02:02:32.367Z,70.62
2017-05-26T02:02:58.520Z,71.1
2017-05-26T02:03:24.658Z,70.72
2017-05-26T02:03:50.824Z,70.9
2017-05-26T02:04:16.951Z,70.72
2017-05-26T02:04:43.091Z,71.1
2017-05-26T02:05:09.197Z,71.1
2017-05-26T02:05:35.299Z,70.9
2017-05-26T02:06:01.412Z,70.9
2017-05-26T02:06:27.517Z,71.1
2017-05-26T02:06:53.683Z,70.9
2017-05-26T02:07:19.798Z,71
2017-05-26T02:07:45.925Z,71
2017-05-26T02:08:12.064Z,71
2017-05-26T02:08:38.180Z,70.81
2017-05-26T02:09:04.326Z,70.81
2017-05-26T02:09:30.477Z,71.1
2017-05-26T02:09:56.609Z,70.9
2017-05-26T02:10:22.724Z,70.9
2017-05-26T02:10:48.805Z,70.9
2017-05-26T02:11:14.935Z,70.9
2017-05-26T02:11:41.067Z,70.9
2017-05-26T02:12:07.160Z,70.9
2017-05-26T02:12:33.283Z,71.1
2017-05-26T02:12:59.417Z,70.72
2017-05-26T02:13:25.541Z,70.9
2017-05-26T02:13:51.682Z,71.19
2017-05-26T02:14:17.791Z,71.29
2017-05-26T02:14:43.917Z,71.19
2017-05-26T02:15:10.100Z,71.29
2017-05-26T02:15:36.218Z,70.9
2017-05-26T02:16:02.314Z,70.9
2017-05-26T02:16:28.449Z,71
2017-05-26T02:16:54.594Z,70.9
2017-05-26T02:17:20.736Z,71.39
2017-05-26T02:17:46.903Z,70.9
2017-05-26T02:18:13.002Z,71.1
2017-05-26T02:18:39.116Z,71.29
2017-05-26T02:19:05.247Z,71.29
2017-05-26T02:19:31.345Z,71.48
2017-05-26T02:19:57.463Z,70.9
2017-05-26T02:20:23.592Z,71.48
2017-05-26T02:20:49.709Z,70.9
2017-05-26T02:21:15.816Z,71
2017-05-26T02:21:41.941Z,71.29
2017-05-26T02:22:08.085Z,70.9
2017-05-26T02:22:34.193Z,70.81
2017-05-26T02:23:00.322Z,71
2017-05-26T02:23:26.413Z,71.1
2017-05-26T02:23:52.597Z,71
2017-05-26T02:24:18.705Z,70.9
2017-05-26T02:24:44.821Z,70.9
2017-05-26T02:25:10.996Z,71
2017-05-26T02:25:37.131Z,71.29
2017-05-26T02:26:03.245Z,71.29
2017-05-26T02:26:29.349Z,71.35
2017-05-26T02:26:55.464Z,71.45
2017-05-26T02:27:21.568Z,71.83
2017-05-26T02:27:47.703Z,71.93
2017-05-26T02:28:13.841Z,71.83
2017-05-26T02:28:39.969Z,72.02
2017-05-26T02:29:06.104Z,71.93
2017-05-26T02:29:32.197Z,72.02
2017-05-26T02:29:58.619Z,71.64
2017-05-26T02:30:24.713Z,71.55
2017-05-26T02:30:50.835Z,71.55
2017-05-26T02:31:16.940Z,72.02
2017-05-26T02:31:43.036Z,71.64
2017-05-26T02:32:09.160Z,71.64
2017-05-26T02:32:35.254Z,72.02
2017-05-26T02:33:01.411Z,71.73
2017-05-26T02:33:27.511Z,71.55
2017-05-26T02:33:53.626Z,71.35
2017-05-26T02:34:19.731Z,71.73
2017-05-26T02:34:45.840Z,72.02
2017-05-26T02:35:11.953Z,71.73
2017-05-26T02:35:38.084Z,72.02
2017-05-26T02:36:04.218Z,71.25
2017-05-26T02:36:30.337Z,71.35
2017-05-26T02:36:56.457Z,71.64
2017-05-26T02:37:22.583Z,71.35
2017-05-26T02:37:48.713Z,71.35
2017-05-26T02:38:14.903Z,71.06
2017-05-26T02:38:41.017Z,71.25
2017-05-26T02:39:07.143Z,71.45
2017-05-26T02:39:33.273Z,71.55
2017-05-26T02:39:59.366Z,71.73
2017-05-26T02:40:25.464Z,71.55
2017-05-26T02:40:51.571Z,71.93
2017-05-26T02:41:17.665Z,71.83
2017-05-26T02:41:43.780Z,71.93
2017-05-26T02:42:09.890Z,72.02
2017-05-26T02:42:36.066Z,71.73
2017-05-26T02:43:02.207Z,71.64
2017-05-26T02:43:28.343Z,71.83
2017-05-26T02:43:54.497Z,71.93
2017-05-26T02:44:20.584Z,72.02
2017-05-26T02:44:46.716Z,71.83
2017-05-26T02:45:12.852Z,71.93
2017-05-26T02:45:38.939Z,72.41
2017-05-26T02:46:05.043Z,72.5
2017-05-26T02:46:31.151Z,72.41
2017-05-26T02:46:57.240Z,72.02
2017-05-26T02:47:23.336Z,72.02
2017-05-26T02:47:49.472Z,72.02
2017-05-26T02:48:15.567Z,72.41
2017-05-26T02:48:41.746Z,72.6
2017-05-26T02:49:07.837Z,72.02
2017-05-26T02:49:33.962Z,72.02
2017-05-26T02:50:00.096Z,71.55
2017-05-26T02:50:26.186Z,71.73
2017-05-26T02:50:52.330Z,71.73
2017-05-26T02:51:18.436Z,71.64
2017-05-26T02:51:44.532Z,72.02
2017-05-26T02:52:10.623Z,71.93
2017-05-26T02:52:36.759Z,72.31
2017-05-26T02:53:02.858Z,72.41
2017-05-26T02:53:28.949Z,72.02
2017-05-26T02:53:55.054Z,71.93
2017-05-26T02:54:21.149Z,71.55
2017-05-26T02:54:47.365Z,72.22
2017-05-26T02:55:13.509Z,71.73
2017-05-26T02:55:39.622Z,71.64
2017-05-26T02:56:05.734Z,72.22
2017-05-26T02:56:31.859Z,72.02
2017-05-26T02:56:58.024Z,71.55
2017-05-26T02:57:24.129Z,71.64
2017-05-26T02:57:50.232Z,72.12
2017-05-26T02:58:16.373Z,72.41
2017-05-26T02:58:42.552Z,72.37
2017-05-26T02:59:08.691Z,72.66
2017-05-26T02:59:34.835Z,72.95
2017-05-26T03:00:01.012Z,72.95
2017-05-26T03:00:27.103Z,72.75
2017-05-26T03:00:53.238Z,72.47
2017-05-26T03:01:19.368Z,72.66
2017-05-26T03:01:45.508Z,72.18
2017-05-26T03:02:11.612Z,72.85
2017-05-26T03:02:37.806Z,72.18
2017-05-26T03:03:03.893Z,72.75
2017-05-26T03:03:30.018Z,72.66
2017-05-26T03:03:56.123Z,72.47
2017-05-26T03:04:22.288Z,72.66
2017-05-26T03:04:48.411Z,71.89
2017-05-26T03:05:14.536Z,72.85
2017-05-26T03:05:40.641Z,72.56
2017-05-26T03:06:06.776Z,72.18
2017-05-26T03:06:32.893Z,72.18
2017-05-26T03:06:59.043Z,72.75
2017-05-26T03:07:25.149Z,72.47
2017-05-26T03:07:51.292Z,72.18
2017-05-26T03:08:17.451Z,72.08
2017-05-26T03:08:43.550Z,72.56
2017-05-26T03:09:09.674Z,72.95
2017-05-26T03:09:35.840Z,72.66
2017-05-26T03:10:02.004Z,72.75
2017-05-26T03:10:28.140Z,72.75
2017-05-26T03:10:54.274Z,72.56
2017-05-26T03:11:20.365Z,72.47
2017-05-26T03:11:46.462Z,72.37
2017-05-26T03:12:12.626Z,72.95
2017-05-26T03:12:38.745Z,72.37
2017-05-26T03:13:04.887Z,73.04
2017-05-26T03:13:31.076Z,72.47
2017-05-26T03:13:57.254Z,72.95
2017-05-26T03:14:23.372Z,73.04
2017-05-26T03:14:49.501Z,72.75
2017-05-26T03:15:15.659Z,72.56
2017-05-26T03:15:41.774Z,73.43
2017-05-26T03:16:07.878Z,73.04
2017-05-26T03:16:33.991Z,73.24
2017-05-26T03:17:00.101Z,73.14
2017-05-26T03:17:26.224Z,72.47
2017-05-26T03:17:52.340Z,72.56
2017-05-26T03:18:18.499Z,72.37
2017-05-26T03:18:44.627Z,72.85
2017-05-26T03:19:10.768Z,72.37
2017-05-26T03:19:36.896Z,72.56
2017-05-26T03:20:03.029Z,72.75
2017-05-26T03:20:29.118Z,72.56
2017-05-26T03:20:55.218Z,72.95
2017-05-26T03:21:21.352Z,72.66
2017-05-26T03:21:47.444Z,72.95
2017-05-26T03:22:13.573Z,72.95
2017-05-26T03:22:39.692Z,73.14
2017-05-26T03:23:05.818Z,72.95
2017-05-26T03:23:31.985Z,73.04
2017-05-26T03:23:58.124Z,73.14
2017-05-26T03:24:24.248Z,72.95
2017-05-26T03:24:50.382Z,73.04
2017-05-26T03:25:16.553Z,73.04
2017-05-26T03:25:42.724Z,73.04
2017-05-26T03:26:08.831Z,73.52
2017-05-26T03:26:34.950Z,72.95
2017-05-26T03:27:01.042Z,72.95
2017-05-26T03:27:27.209Z,73.04
2017-05-26T03:27:53.337Z,73.04
2017-05-26T03:28:19.504Z,73
2017-05-26T03:28:45.637Z,72.95
2017-05-26T03:29:11.792Z,73.04
2017-05-26T03:29:37.886Z,73
2017-05-26T03:30:04.012Z,72.85
2017-05-26T03:30:30.120Z,72.75
2017-05-26T03:30:56.262Z,73.04
2017-05-26T03:31:22.413Z,73.3
2017-05-26T03:31:48.547Z,72.85
2017-05-26T03:32:14.639Z,73.24
2017-05-26T03:32:40.761Z,73.24
2017-05-26T03:33:06.887Z,72.95
2017-05-26T03:33:33.043Z,73.33
2017-05-26T03:33:59.205Z,72.95
2017-05-26T03:34:25.319Z,73.72
2017-05-26T03:34:51.420Z,73.52
2017-05-26T03:35:17.558Z,72.95
2017-05-26T03:35:43.649Z,72.85
2017-05-26T03:36:09.746Z,73.04
2017-05-26T03:36:35.880Z,73.24
2017-05-26T03:37:01.999Z,73.04
2017-05-26T03:37:28.090Z,73.14
2017-05-26T03:37:54.258Z,72.95
2017-05-26T03:38:20.413Z,72.47
2017-05-26T03:38:46.543Z,72.56
2017-05-26T03:39:12.688Z,72.85
2017-05-26T03:39:38.855Z,73.04
2017-05-26T03:40:04.990Z,73.24
2017-05-26T03:40:31.110Z,73.04
2017-05-26T03:40:57.199Z,72.85
2017-05-26T03:41:23.310Z,72.95
2017-05-26T03:41:49.410Z,73.04
2017-05-26T03:42:15.549Z,72.95
2017-05-26T03:42:41.659Z,73.04
2017-05-26T03:43:07.816Z,72.95
2017-05-26T03:43:33.936Z,72.95
2017-05-26T03:44:00.089Z,73.24
2017-05-26T03:44:26.254Z,72.85
2017-05-26T03:44:52.392Z,73.24
2017-05-26T03:45:18.514Z,73.04
2017-05-26T03:45:44.608Z,72.85
2017-05-26T03:46:10.713Z,73.62
2017-05-26T03:46:36.814Z,73.62
2017-05-26T03:47:02.906Z,73.43
2017-05-26T03:47:29.064Z,73.62
2017-05-26T03:47:55.199Z,73.24
2017-05-26T03:48:21.342Z,73.33
2017-05-26T03:48:47.470Z,73.24
2017-05-26T03:49:13.603Z,73.24
2017-05-26T03:49:39.693Z,73.24
2017-05-26T03:50:05.826Z,73.43
2017-05-26T03:50:31.917Z,73.62
2017-05-26T03:50:58.076Z,73.24
2017-05-26T03:51:24.185Z,73.33
2017-05-26T03:51:50.278Z,73.04
2017-05-26T03:52:16.381Z,73.04
2017-05-26T03:52:42.513Z,72.95
2017-05-26T03:53:08.654Z,72.95
2017-05-26T03:53:34.822Z,72.95
2017-05-26T03:54:00.984Z,72.95
2017-05-26T03:54:27.106Z,72.95
2017-05-26T03:54:53.256Z,72.95
2017-05-26T03:55:19.372Z,72.85
2017-05-26T03:55:45.473Z,73.04
2017-05-26T03:56:11.606Z,73.52
2017-05-26T03:56:37.698Z,73.52
2017-05-26T03:57:03.804Z,73.62
2017-05-26T03:57:29.905Z,73.43
2017-05-26T03:57:56.051Z,73.91
2017-05-26T03:58:22.194Z,73.62
2017-05-26T03:58:48.384Z,73.52
2017-05-26T03:59:14.503Z,73.62
2017-05-26T03:59:40.644Z,73.43
2017-05-26T04:00:06.776Z,72.95
2017-05-26T04:00:32.878Z,72.75
2017-05-26T04:00:59.030Z,73.04
2017-05-26T04:01:25.125Z,73.33
2017-05-26T04:01:51.218Z,73.52
2017-05-26T04:02:17.355Z,73.72
2017-05-26T04:02:43.484Z,73.33
2017-05-26T04:03:09.623Z,73.72
2017-05-26T04:03:35.756Z,73.81
2017-05-26T04:04:01.883Z,73.43
2017-05-26T04:04:28.001Z,73.43
2017-05-26T04:04:54.130Z,73.24
2017-05-26T04:05:20.262Z,73.04
2017-05-26T04:05:46.401Z,72.75
2017-05-26T04:06:12.521Z,72.85
2017-05-26T04:06:38.643Z,73.04
2017-05-26T04:07:04.830Z,73.04
2017-05-26T04:07:30.928Z,73.14
2017-05-26T04:07:57.038Z,73.04
2017-05-26T04:08:23.168Z,73.14
2017-05-26T04:08:49.302Z,73.04
2017-05-26T04:09:15.393Z,73.24
2017-05-26T04:09:41.547Z,73.14
2017-05-26T04:10:07.680Z,72.95
2017-05-26T04:10:33.771Z,73.24
2017-05-26T04:10:59.894Z,72.95
2017-05-26T04:11:25.999Z,73.04
2017-05-26T04:11:52.140Z,73.52
2017-05-26T04:12:18.231Z,73.24
2017-05-26T04:12:44.465Z,72.75
2017-05-26T04:13:10.575Z,72.95
2017-05-26T04:13:36.691Z,72.95
2017-05-26T04:14:02.826Z,72.47
2017-05-26T04:14:28.983Z,72.66
2017-05-26T04:14:55.144Z,72.56
2017-05-26T04:15:21.300Z,72.75
2017-05-26T04:15:47.436Z,72.08
2017-05-26T04:16:13.525Z,72.85
2017-05-26T04:16:39.654Z,72.66
2017-05-26T04:17:05.761Z,72.75
2017-05-26T04:17:31.852Z,72.75
2017-05-26T04:17:58.009Z,72.47
2017-05-26T04:18:24.127Z,72.56
2017-05-26T04:18:50.277Z,72.37
2017-05-26T04:19:16.440Z,72.66
2017-05-26T04:19:42.526Z,72.75
2017-05-26T04:20:08.678Z,72.37
2017-05-26T04:20:34.789Z,72.22
2017-05-26T04:21:00.875Z,72.85
2017-05-26T04:21:26.972Z,72.6
2017-05-26T04:21:53.145Z,72.12
2017-05-26T04:22:19.256Z,72.79
2017-05-26T04:22:45.374Z,72.47
2017-05-26T04:23:11.474Z,72.47
2017-05-26T04:23:37.603Z,72.56
2017-05-26T04:24:03.737Z,72.95
2017-05-26T04:24:29.853Z,72.95
2017-05-26T04:24:55.952Z,72.85
2017-05-26T04:25:22.088Z,72.85
2017-05-26T04:25:48.183Z,73.04
2017-05-26T04:26:14.275Z,73.04
2017-05-26T04:26:40.385Z,73.14
2017-05-26T04:27:06.507Z,72.95
2017-05-26T04:27:32.623Z,72.75
2017-05-26T04:27:58.761Z,72.47
2017-05-26T04:28:24.920Z,72.66
2017-05-26T04:28:51.046Z,72.75
2017-05-26T04:29:17.140Z,72.56
2017-05-26T04:29:43.254Z,72.85
2017-05-26T04:30:09.383Z,72.95
2017-05-26T04:30:35.509Z,72.95
2017-05-26T04:31:01.601Z,72.99
2017-05-26T04:31:27.709Z,73.08
2017-05-26T04:31:53.808Z,72.5
2017-05-26T04:32:19.896Z,72.6
2017-05-26T04:32:46.030Z,72.89
2017-05-26T04:33:12.192Z,72.6
2017-05-26T04:33:38.303Z,72.69
2017-05-26T04:34:04.452Z,72.69
2017-05-26T04:34:30.585Z,72.69
2017-05-26T04:34:56.728Z,72.69
2017-05-26T04:35:22.847Z,72.99
2017-05-26T04:35:48.953Z,72.99
2017-05-26T04:36:15.047Z,72.75
2017-05-26T04:36:41.140Z,72.6
2017-05-26T04:37:07.249Z,72.79
2017-05-26T04:37:33.347Z,73.08
2017-05-26T04:37:59.490Z,73.18
2017-05-26T04:38:25.623Z,72.6
2017-05-26T04:38:51.778Z,73.37
2017-05-26T04:39:17.869Z,72.89
2017-05-26T04:39:43.974Z,73.08
2017-05-26T04:40:10.093Z,73.62
2017-05-26T04:40:36.232Z,72.99
2017-05-26T04:41:02.353Z,72.99
2017-05-26T04:41:28.444Z,72.99
2017-05-26T04:41:54.551Z,72.99
2017-05-26T04:42:20.652Z,72.89
2017-05-26T04:42:46.818Z,72.6
2017-05-26T04:43:12.972Z,72.6
2017-05-26T04:43:39.163Z,72.79
2017-05-26T04:44:05.326Z,72.99
2017-05-26T04:44:31.476Z,72.99
2017-05-26T04:44:57.636Z,72.79
2017-05-26T04:45:23.726Z,73.18
2017-05-26T04:45:49.830Z,72.5
2017-05-26T04:46:15.925Z,72.73
2017-05-26T04:46:42.107Z,72.54
2017-05-26T04:47:08.242Z,71.61
2017-05-26T04:47:34.329Z,70.3
2017-05-26T04:48:00.482Z,69.82
2017-05-26T04:48:26.590Z,68.9
2017-05-26T04:48:52.706Z,67.35
2017-05-26T04:49:18.829Z,66.04
2017-05-26T04:49:44.937Z,65.78
2017-05-26T04:50:11.058Z,64.82
2017-05-26T04:50:37.176Z,63.5
2017-05-26T04:51:03.330Z,62.73
2017-05-26T04:51:29.479Z,61.96
2017-05-26T04:51:55.586Z,61.41
2017-05-26T04:52:21.704Z,60.93
2017-05-26T04:52:47.829Z,60.28
2017-05-26T04:53:14.017Z,59.9
2017-05-26T04:53:40.192Z,59.8
2017-05-26T04:54:06.283Z,59.32
2017-05-26T04:54:32.421Z,59.42
2017-05-26T04:54:58.600Z,60.1
2017-05-26T04:55:24.692Z,59.78
2017-05-26T04:55:50.797Z,59.68
2017-05-26T04:56:16.900Z,59.87
2017-05-26T04:56:42.989Z,60.83
2017-05-26T04:57:09.147Z,60.74
2017-05-26T04:57:35.256Z,61
2017-05-26T04:58:01.394Z,61.68
2017-05-26T04:58:27.548Z,61.38
2017-05-26T04:58:53.684Z,61.19
2017-05-26T04:59:19.803Z,61.19
2017-05-26T04:59:45.952Z,61.38
2017-05-26T05:00:12.087Z,61.96
2017-05-26T05:00:38.206Z,62.35
2017-05-26T05:01:04.300Z,62.45
2017-05-26T05:01:30.412Z,62.93
2017-05-26T05:01:56.508Z,62.63
2017-05-26T05:02:22.612Z,63.09
2017-05-26T05:02:48.757Z,63.76
2017-05-26T05:03:14.822Z,64.05
2017-05-26T05:03:40.987Z,64.53
2017-05-26T05:04:07.132Z,64.34
2017-05-26T05:04:33.297Z,64.31
2017-05-26T05:04:59.435Z,64.89
2017-05-26T05:05:25.536Z,65.37
2017-05-26T05:05:51.653Z,65.81
2017-05-26T05:06:17.762Z,66.2
2017-05-26T05:06:43.891Z,66.58
2017-05-26T05:07:10.006Z,67.35
2017-05-26T05:07:36.109Z,67.9
2017-05-26T05:08:02.227Z,68.67
2017-05-26T05:08:28.368Z,68.38
2017-05-26T05:08:54.466Z,69.21
2017-05-26T05:09:20.583Z,69.31
2017-05-26T05:09:46.692Z,70.46
2017-05-26T05:10:12.847Z,70.17
2017-05-26T05:10:38.937Z,71.1
2017-05-26T05:11:05.044Z,71.77
2017-05-26T05:11:31.207Z,71.77
2017-05-26T05:11:57.324Z,71.96
2017-05-26T05:12:23.448Z,72.44
2017-05-26T05:12:49.555Z,72.44
2017-05-26T05:13:15.648Z,72.54
2017-05-26T05:13:41.813Z,72.73
2017-05-26T05:14:07.907Z,72.99
2017-05-26T05:14:34.034Z,73.46
2017-05-26T05:15:00.170Z,73.66
2017-05-26T05:15:26.259Z,73.46
2017-05-26T05:15:52.383Z,73.46
2017-05-26T05:16:18.487Z,73.56
2017-05-26T05:16:44.605Z,73.56
2017-05-26T05:17:10.703Z,73.66
2017-05-26T05:17:36.813Z,73.69
2017-05-26T05:18:02.961Z,73.85
2017-05-26T05:18:29.073Z,73.66
2017-05-26T05:18:55.229Z,73.69
2017-05-26T05:19:21.354Z,73.98
2017-05-26T05:19:47.514Z,73.6
2017-05-26T05:20:13.630Z,73.69
2017-05-26T05:20:39.728Z,73.5
2017-05-26T05:21:05.835Z,73.69
2017-05-26T05:21:31.930Z,73.69
2017-05-26T05:21:58.044Z,73.21
2017-05-26T05:22:24.154Z,73.69
2017-05-26T05:22:50.249Z,73.69
2017-05-26T05:23:16.365Z,73.6
2017-05-26T05:23:42.499Z,74.04
2017-05-26T05:24:08.657Z,74.23
2017-05-26T05:24:34.781Z,74.23
2017-05-26T05:25:00.931Z,74.52
2017-05-26T05:25:27.022Z,74.62
2017-05-26T05:25:53.143Z,74.9
2017-05-26T05:26:19.315Z,74.62
2017-05-26T05:26:45.451Z,74.71
2017-05-26T05:27:11.558Z,75.1
2017-05-26T05:27:37.659Z,75
2017-05-26T05:28:03.751Z,75.67
2017-05-26T05:28:29.857Z,75.29
2017-05-26T05:28:56.048Z,75.1
2017-05-26T05:29:22.163Z,75.29
2017-05-26T05:29:48.290Z,75.48
2017-05-26T05:30:14.383Z,75.29
2017-05-26T05:30:40.520Z,75
2017-05-26T05:31:06.646Z,75
2017-05-26T05:31:32.759Z,75.29
2017-05-26T05:31:58.864Z,75.29
2017-05-26T05:32:24.970Z,75.67
2017-05-26T05:32:51.109Z,75.57
2017-05-26T05:33:17.209Z,75.67
2017-05-26T05:33:43.316Z,75.57
2017-05-26T05:34:09.407Z,75.87
2017-05-26T05:34:35.530Z,75.77
2017-05-26T05:35:01.637Z,75.57
2017-05-26T05:35:27.730Z,75.57
2017-05-26T05:35:54.072Z,75.38
2017-05-26T05:36:20.161Z,75.48
2017-05-26T05:36:46.283Z,75.57
2017-05-26T05:37:12.447Z,75.67
2017-05-26T05:37:38.538Z,75.48
2017-05-26T05:38:04.689Z,75.67